| time (UTC) | temp F | wind direction | speed knots | gust knots | rain 1hr in | rain 24hr in | rain mn in | humidity % | barometer mb |
| 20260504204923 | 53 | 286 | 0.0 | 0.0 | 0.00 | 0.00 | 0.00 | 53 | 1016.2 |
| 20260504203408 | 54 | 286 | 0.0 | 0.0 | 0.00 | 0.00 | 0.00 | 53 | 1016.3 |
| 20260504202410 | 55 | 286 | 0.0 | 0.0 | 0.00 | 0.00 | 0.00 | 51 | 1016.1 |
| 20260504201856 | 55 | 286 | 0.0 | 0.0 | 0.00 | 0.00 | 0.00 | 50 | 1016.2 |
| 20260504201357 | 55 | 286 | 0.0 | 0.0 | 0.00 | 0.00 | 0.00 | 49 | 1016.0 |
| 20260504200857 | 56 | 286 | 0.0 | 0.0 | 0.00 | 0.00 | 0.00 | 48 | 1016.1 |
| 20260504200357 | 56 | 286 | 0.0 | 0.0 | 0.00 | 0.00 | 0.00 | 48 | 1016.1 |
| 20260504195357 | 56 | 286 | 0.0 | 0.0 | 0.00 | 0.00 | 0.00 | 47 | 1016.2 |
| 20260504194856 | 57 | 286 | 0.0 | 0.0 | 0.00 | 0.00 | 0.00 | 47 | 1016.2 |
| 20260504194358 | 57 | 286 | 0.0 | 0.0 | 0.00 | 0.00 | 0.00 | 46 | 1016.3 |
| 20260504193857 | 57 | 286 | 0.0 | 0.0 | 0.00 | 0.00 | 0.00 | 46 | 1016.1 |
| 20260504193356 | 58 | 286 | 0.0 | 0.0 | 0.00 | 0.00 | 0.00 | 45 | 1016.2 |
| 20260504192856 | 58 | 286 | 0.0 | 0.0 | 0.00 | 0.00 | 0.00 | 45 | 1016.2 |
| 20260504192356 | 58 | 286 | 0.0 | 0.0 | 0.00 | 0.00 | 0.00 | 44 | 1016.1 |
| 20260504191856 | 59 | 287 | 0.0 | 0.0 | 0.00 | 0.00 | 0.00 | 43 | 1016.2 |
| 20260504191356 | 59 | 287 | 0.0 | 0.0 | 0.00 | 0.00 | 0.00 | 43 | 1016.3 |
| 20260504190856 | 60 | 287 | 0.0 | 0.0 | 0.00 | 0.00 | 0.00 | 43 | 1016.2 |
| 20260504190357 | 60 | 286 | 0.0 | 0.0 | 0.00 | 0.00 | 0.00 | 42 | 1016.1 |
| 20260504185856 | 60 | 286 | 0.0 | 0.0 | 0.00 | 0.00 | 0.00 | 42 | 1015.9 |
| 20260504185356 | 61 | 286 | 0.0 | 0.0 | 0.00 | 0.00 | 0.00 | 41 | 1016.2 |
| 20260504184856 | 61 | 286 | 0.0 | 0.0 | 0.00 | 0.00 | 0.00 | 41 | 1015.9 |
| 20260504184359 | 62 | 287 | 0.0 | 0.0 | 0.00 | 0.00 | 0.00 | 40 | 1015.9 |
| 20260504183856 | 62 | 287 | 0.0 | 0.0 | 0.00 | 0.00 | 0.00 | 39 | 1016.1 |
| 20260504183356 | 63 | 287 | 0.0 | 0.0 | 0.00 | 0.00 | 0.00 | 39 | 1015.8 |
| 20260504182856 | 63 | 286 | 0.0 | 0.0 | 0.00 | 0.00 | 0.00 | 39 | 1015.7 |
| 20260504182356 | 64 | 286 | 0.0 | 0.0 | 0.00 | 0.00 | 0.00 | 38 | 1016.0 |
| 20260504181857 | 64 | 286 | 0.0 | 0.0 | 0.00 | 0.00 | 0.00 | 38 | 1015.8 |
| 20260504181359 | 65 | 287 | 0.0 | 0.0 | 0.00 | 0.00 | 0.00 | 37 | 1015.6 |
| 20260504180858 | 65 | 287 | 0.0 | 0.0 | 0.00 | 0.00 | 0.00 | 36 | 1015.7 |
| 20260504180357 | 66 | 286 | 0.0 | 0.0 | 0.00 | 0.00 | 0.00 | 36 | 1015.7 |
| 20260504175856 | 67 | 286 | 0.0 | 0.0 | 0.00 | 0.00 | 0.00 | 36 | 1015.6 |
| 20260504175357 | 67 | 286 | 0.0 | 0.0 | 0.00 | 0.00 | 0.00 | 34 | 1015.8 |
| 20260504174356 | 68 | 286 | 0.0 | 0.9 | 0.00 | 0.00 | 0.00 | 34 | 1015.6 |
| 20260504173847 | 69 | 221 | 0.0 | 1.7 | 0.00 | 0.00 | 0.00 | 32 | 1015.7 |
| 20260504173349 | 70 | 217 | 0.9 | 1.7 | 0.00 | 0.00 | 0.00 | 31 | 1015.6 |
| 20260504172846 | 71 | 247 | 0.0 | 0.9 | 0.00 | 0.00 | 0.00 | 31 | 1015.8 |
| 20260504172348 | 72 | 247 | 0.0 | 1.7 | 0.00 | 0.00 | 0.00 | 30 | 1015.5 |
| 20260504171850 | 73 | 250 | 0.0 | 2.6 | 0.00 | 0.00 | 0.00 | 29 | 1015.4 |
| 20260504171348 | 74 | 108 | 0.0 | 2.6 | 0.00 | 0.00 | 0.00 | 28 | 1015.5 |
| 20260504170850 | 74 | 202 | 0.0 | 6.1 | 0.00 | 0.00 | 0.00 | 26 | 1015.5 |
| 20260504170351 | 75 | 150 | 0.9 | 6.1 | 0.00 | 0.00 | 0.00 | 25 | 1015.6 |
| 20260504150819 | 79 | 169 | 2.6 | 7.8 | 0.00 | 0.00 | 0.00 | 22 | 1016.2 |
| 20260504150318 | 79 | 80 | 1.7 | 7.8 | 0.00 | 0.00 | 0.00 | 23 | 1016.1 |
| 20260504141317 | 80 | 168 | 6.1 | 8.7 | 0.00 | 0.00 | 0.00 | 22 | 1016.4 |
| 20260504140820 | 80 | 210 | 3.5 | 7.0 | 0.00 | 0.00 | 0.00 | 21 | 1016.5 |
| 20260504140316 | 79 | 270 | 1.7 | 7.8 | 0.00 | 0.00 | 0.00 | 20 | 1016.5 |
| 20260504130818 | 79 | 227 | 4.3 | 9.6 | 0.00 | 0.00 | 0.00 | 21 | 1017.1 |
| 20260504130317 | 79 | 179 | 2.6 | 9.6 | 0.00 | 0.00 | 0.00 | 21 | 1017.1 |
| 20260504120254 | 78 | 226 | 3.5 | 11.3 | 0.00 | 0.00 | 0.00 | 25 | 1017.9 |
| 20260504110256 | 76 | 226 | 5.2 | 14.8 | 0.00 | 0.00 | 0.00 | 26 | 1018.4 |
| 20260504100253 | 74 | 101 | 2.6 | 9.6 | 0.00 | 0.00 | 0.00 | 28 | 1019.4 |
| 20260504081253 | 71 | 170 | 4.3 | 9.6 | 0.00 | 0.00 | 0.00 | 30 | 1020.2 |
| 20260504080251 | 69 | 124 | 1.7 | 9.6 | 0.00 | 0.00 | 0.00 | 29 | 1020.4 |
| 20260504060239 | 58 | 214 | 0.9 | 2.6 | 0.00 | 0.00 | 0.00 | 55 | 1020.5 |
| 20260504050726 | 52 | 79 | 0.0 | 0.9 | 0.00 | 0.00 | 0.00 | 69 | 1020.8 |
| 20260504050225 | 50 | 229 | 0.0 | 0.0 | 0.00 | 0.00 | 0.00 | 74 | 1020.8 |
| 20260504045724 | 49 | 229 | 0.0 | 0.0 | 0.00 | 0.00 | 0.00 | 77 | 1020.6 |
| 20260504045225 | 47 | 229 | 0.0 | 0.0 | 0.00 | 0.00 | 0.00 | 79 | 1020.6 |
| 20260504044726 | 46 | 229 | 0.0 | 0.0 | 0.00 | 0.00 | 0.00 | 83 | 1020.4 |
| 20260504043713 | 43 | 229 | 0.0 | 0.0 | 0.00 | 0.00 | 0.00 | 86 | 1020.4 |
| 20260504042714 | 41 | 229 | 0.0 | 0.0 | 0.00 | 0.00 | 0.00 | 85 | 1020.5 |
| 20260504041714 | 40 | 229 | 0.0 | 0.0 | 0.00 | 0.00 | 0.00 | 84 | 1020.3 |
| 20260504040713 | 40 | 229 | 0.0 | 0.0 | 0.00 | 0.00 | 0.00 | 84 | 1020.8 |
| 20260504040212 | 40 | 229 | 0.0 | 0.0 | 0.00 | 0.00 | 0.00 | 83 | 1020.1 |
| 20260504035215 | 40 | 229 | 0.0 | 0.0 | 0.00 | 0.00 | 0.00 | 83 | 1020.1 |
| 20260504034700 | 40 | 229 | 0.0 | 0.0 | 0.00 | 0.00 | 0.00 | 83 | 1020.1 |
| 20260504033702 | 40 | 229 | 0.0 | 0.0 | 0.00 | 0.00 | 0.00 | 83 | 1020.1 |
| 20260504032702 | 40 | 229 | 0.0 | 0.0 | 0.00 | 0.00 | 0.00 | 82 | 1020.1 |
| 20260504032149 | 40 | 229 | 0.0 | 0.0 | 0.00 | 0.00 | 0.00 | 82 | 1020.2 |
| 20260504031649 | 40 | 229 | 0.0 | 0.0 | 0.00 | 0.00 | 0.00 | 82 | 1020.0 |
| 20260504031150 | 40 | 229 | 0.0 | 0.0 | 0.00 | 0.00 | 0.00 | 82 | 1020.2 |
| 20260504030649 | 40 | 229 | 0.0 | 0.0 | 0.00 | 0.00 | 0.00 | 82 | 1019.9 |
| 20260504030150 | 40 | 229 | 0.0 | 0.0 | 0.00 | 0.00 | 0.00 | 81 | 1020.0 |
| 20260504025655 | 40 | 229 | 0.0 | 0.0 | 0.00 | 0.00 | 0.00 | 81 | 1019.9 |
| 20260504025149 | 40 | 229 | 0.0 | 0.0 | 0.00 | 0.00 | 0.00 | 81 | 1020.2 |
| 20260504024650 | 40 | 229 | 0.0 | 0.0 | 0.00 | 0.00 | 0.00 | 81 | 1020.1 |
| 20260504024151 | 40 | 229 | 0.0 | 0.0 | 0.00 | 0.00 | 0.00 | 81 | 1020.1 |
| 20260504023652 | 40 | 229 | 0.0 | 0.0 | 0.00 | 0.00 | 0.00 | 80 | 1019.6 |
| 20260504023150 | 40 | 229 | 0.0 | 0.0 | 0.00 | 0.00 | 0.00 | 80 | 1019.9 |
| 20260504022650 | 40 | 229 | 0.0 | 0.0 | 0.00 | 0.00 | 0.00 | 80 | 1019.8 |
| 20260504022151 | 40 | 229 | 0.0 | 0.0 | 0.00 | 0.00 | 0.00 | 80 | 1019.6 |
| 20260504021652 | 41 | 229 | 0.0 | 0.0 | 0.00 | 0.00 | 0.00 | 80 | 1019.9 |
| 20260504020650 | 41 | 229 | 0.0 | 0.0 | 0.00 | 0.00 | 0.00 | 80 | 1019.8 |
| 20260504015651 | 41 | 229 | 0.0 | 0.0 | 0.00 | 0.00 | 0.00 | 79 | 1019.9 |
| 20260504014651 | 41 | 229 | 0.0 | 0.0 | 0.00 | 0.00 | 0.00 | 79 | 1020.0 |
| 20260504013650 | 41 | 229 | 0.0 | 0.0 | 0.00 | 0.00 | 0.00 | 78 | 1019.9 |
| 20260504013150 | 42 | 229 | 0.0 | 0.0 | 0.00 | 0.00 | 0.00 | 78 | 1020.0 |
| 20260504012651 | 42 | 229 | 0.0 | 0.0 | 0.00 | 0.00 | 0.00 | 78 | 1019.8 |
| 20260504012149 | 42 | 229 | 0.0 | 0.0 | 0.00 | 0.00 | 0.00 | 78 | 1019.9 |
| 20260504011204 | 42 | 229 | 0.0 | 0.0 | 0.00 | 0.00 | 0.00 | 78 | 1020.1 |
| 20260504010138 | 42 | 229 | 0.0 | 0.0 | 0.00 | 0.00 | 0.00 | 78 | 1020.0 |
| 20260504005639 | 42 | 229 | 0.0 | 0.0 | 0.00 | 0.00 | 0.00 | 78 | 1019.7 |
| 20260504005138 | 42 | 229 | 0.0 | 0.0 | 0.00 | 0.00 | 0.00 | 77 | 1019.8 |
| 20260504004637 | 42 | 229 | 0.0 | 0.0 | 0.00 | 0.00 | 0.00 | 76 | 1019.7 |
| 20260504004138 | 42 | 229 | 0.0 | 0.0 | 0.00 | 0.00 | 0.00 | 76 | 1019.8 |
| 20260504003637 | 43 | 229 | 0.0 | 0.0 | 0.00 | 0.00 | 0.00 | 76 | 1019.9 |
| 20260504003139 | 43 | 229 | 0.0 | 0.0 | 0.00 | 0.00 | 0.00 | 76 | 1019.8 |
| 20260504002639 | 43 | 229 | 0.0 | 0.0 | 0.00 | 0.00 | 0.00 | 75 | 1020.0 |
| 20260504002138 | 43 | 229 | 0.0 | 0.0 | 0.00 | 0.00 | 0.00 | 75 | 1020.0 |
| 20260504001637 | 43 | 229 | 0.0 | 0.9 | 0.00 | 0.00 | 0.00 | 74 | 1019.9 |
| 20260504001139 | 43 | 229 | 0.0 | 0.9 | 0.00 | 0.00 | 0.00 | 74 | 1019.8 |
| 20260504000636 | 44 | 229 | 0.0 | 0.0 | 0.00 | 0.00 | 0.00 | 74 | 1019.7 |
| 20260504000136 | 44 | 229 | 0.0 | 0.0 | 0.00 | 0.00 | 0.00 | 73 | 1019.9 |
| 20260503235637 | 44 | 229 | 0.0 | 0.0 | 0.00 | 0.00 | 0.00 | 74 | 1019.7 |
| 20260503234636 | 44 | 229 | 0.0 | 0.0 | 0.00 | 0.00 | 0.00 | 74 | 1020.0 |
| 20260503234136 | 44 | 229 | 0.0 | 0.9 | 0.00 | 0.00 | 0.00 | 72 | 1019.9 |
| 20260503233638 | 44 | 229 | 0.0 | 0.9 | 0.00 | 0.00 | 0.00 | 72 | 1020.1 |
| 20260503233137 | 45 | 229 | 0.0 | 0.0 | 0.00 | 0.00 | 0.00 | 72 | 1020.1 |
| 20260503232636 | 45 | 229 | 0.0 | 0.9 | 0.00 | 0.00 | 0.00 | 72 | 1020.1 |
| 20260503231640 | 45 | 229 | 0.0 | 0.9 | 0.00 | 0.00 | 0.00 | 72 | 1020.0 |
| 20260503231137 | 45 | 229 | 0.0 | 0.9 | 0.00 | 0.00 | 0.00 | 71 | 1019.9 |
| 20260503230638 | 45 | 229 | 0.0 | 0.0 | 0.00 | 0.00 | 0.00 | 71 | 1020.1 |
| 20260503230138 | 45 | 229 | 0.0 | 0.0 | 0.00 | 0.00 | 0.00 | 71 | 1020.0 |
| 20260503225638 | 46 | 229 | 0.0 | 0.0 | 0.00 | 0.00 | 0.00 | 71 | 1020.1 |
| 20260503225139 | 46 | 229 | 0.0 | 0.0 | 0.00 | 0.00 | 0.00 | 71 | 1020.1 |
| 20260503224637 | 46 | 229 | 0.0 | 0.0 | 0.00 | 0.00 | 0.00 | 69 | 1020.2 |
| 20260503224138 | 46 | 229 | 0.0 | 0.0 | 0.00 | 0.00 | 0.00 | 68 | 1020.1 |
| 20260503223640 | 46 | 229 | 0.0 | 0.0 | 0.00 | 0.00 | 0.00 | 68 | 1020.3 |
| 20260503223138 | 46 | 229 | 0.0 | 0.0 | 0.00 | 0.00 | 0.00 | 68 | 1020.1 |
| 20260503222639 | 46 | 229 | 0.0 | 0.0 | 0.00 | 0.00 | 0.00 | 68 | 1020.1 |
| 20260503222139 | 46 | 229 | 0.0 | 0.0 | 0.00 | 0.00 | 0.00 | 68 | 1020.2 |
| 20260503221638 | 47 | 229 | 0.0 | 0.0 | 0.00 | 0.00 | 0.00 | 67 | 1020.2 |
| 20260503220624 | 47 | 229 | 0.0 | 0.0 | 0.00 | 0.00 | 0.00 | 66 | 1020.3 |
| 20260503220124 | 47 | 229 | 0.0 | 0.0 | 0.00 | 0.00 | 0.00 | 66 | 1020.2 |
| 20260503215625 | 47 | 229 | 0.0 | 0.0 | 0.00 | 0.00 | 0.00 | 66 | 1020.5 |
| 20260503215122 | 47 | 229 | 0.0 | 0.0 | 0.00 | 0.00 | 0.00 | 65 | 1020.4 |
| 20260503214124 | 48 | 229 | 0.0 | 0.0 | 0.00 | 0.00 | 0.00 | 65 | 1020.3 |
| 20260503213623 | 48 | 229 | 0.0 | 0.0 | 0.00 | 0.00 | 0.00 | 65 | 1020.2 |
| 20260503213124 | 48 | 229 | 0.0 | 0.0 | 0.00 | 0.00 | 0.00 | 65 | 1020.2 |
| 20260503212623 | 48 | 229 | 0.0 | 0.0 | 0.00 | 0.00 | 0.00 | 64 | 1020.3 |
| 20260503212124 | 49 | 229 | 0.0 | 0.0 | 0.00 | 0.00 | 0.00 | 63 | 1020.2 |
| 20260503211610 | 49 | 229 | 0.0 | 0.0 | 0.00 | 0.00 | 0.00 | 63 | 1020.3 |
| 20260503210612 | 49 | 229 | 0.0 | 0.0 | 0.00 | 0.00 | 0.00 | 63 | 1020.2 |
| 20260503210112 | 49 | 229 | 0.0 | 0.0 | 0.00 | 0.00 | 0.00 | 63 | 1020.2 |
| 20260503205610 | 50 | 229 | 0.0 | 0.0 | 0.00 | 0.00 | 0.00 | 62 | 1020.2 |
| 20260503205112 | 50 | 229 | 0.0 | 0.0 | 0.00 | 0.00 | 0.00 | 63 | 1020.1 |